createdAt,value
2023-05-02T00:02:18.043Z,90.79
2023-05-02T00:04:44.901Z,92.31
2023-05-02T00:07:11.956Z,89.58
2023-05-02T00:09:38.881Z,86.68
2023-05-02T00:12:05.707Z,85.58
2023-05-02T00:14:33.015Z,85.59
2023-05-02T00:17:01.209Z,84.95
2023-05-02T00:19:27.873Z,84.53
2023-05-02T00:21:54.605Z,84.34
2023-05-02T00:24:21.316Z,87.60
2023-05-02T00:26:48.073Z,92.65
2023-05-02T00:29:14.739Z,93.63
2023-05-02T00:31:41.624Z,93.38
2023-05-02T00:34:09.731Z,92.76
2023-05-02T00:36:36.804Z,89.18
2023-05-02T00:39:04.354Z,93.09
2023-05-02T00:41:31.290Z,91.51
2023-05-02T00:43:58.232Z,90.29
2023-05-02T00:46:25.072Z,94.27
2023-05-02T00:48:52.073Z,94.02
2023-05-02T00:51:20.454Z,94.79
2023-05-02T00:53:47.173Z,94.87
2023-05-02T00:56:13.866Z,94.89
2023-05-02T00:58:41.213Z,93.04
2023-05-02T01:01:26.429Z,92.17
2023-05-02T01:04:00.606Z,90.07
2023-05-02T01:06:36.939Z,89.87
2023-05-02T01:09:10.490Z,90.39
2023-05-02T01:11:44.319Z,89.65
2023-05-02T01:14:12.009Z,89.89
2023-05-02T01:16:40.668Z,89.29
2023-05-02T01:19:10.820Z,88.69
2023-05-02T01:21:39.513Z,87.46
2023-05-02T01:24:10.747Z,87.76
2023-05-02T01:26:45.878Z,86.35
2023-05-02T01:29:15.493Z,86.14
2023-05-02T01:31:44.303Z,85.62
2023-05-02T01:34:11.457Z,86.77
2023-05-02T01:36:42.897Z,87.04
2023-05-02T01:39:10.593Z,86.83
2023-05-02T01:41:38.646Z,86.64
2023-05-02T01:44:07.328Z,86.44
2023-05-02T01:46:38.553Z,86.08
2023-05-02T01:49:06.661Z,86.45
2023-05-02T01:51:35.135Z,87.23
2023-05-02T01:54:04.275Z,88.88
2023-05-02T01:56:32.804Z,93.32
2023-05-02T01:59:00.389Z,93.88
2023-05-02T02:01:28.986Z,93.73
2023-05-02T02:03:57.790Z,92.55
2023-05-02T02:06:25.001Z,90.79
2023-05-02T02:08:51.731Z,93.09
2023-05-02T02:11:21.236Z,92.17
2023-05-02T02:13:50.737Z,89.39
2023-05-02T02:16:21.707Z,88.65
2023-05-02T02:18:48.518Z,88.93
2023-05-02T02:21:18.996Z,91.33
2023-05-02T02:23:47.704Z,94.07
2023-05-02T02:26:14.613Z,93.71
2023-05-02T02:28:43.098Z,93.04
2023-05-02T02:31:09.778Z,90.74
2023-05-02T02:33:36.666Z,91.61
2023-05-02T02:36:07.516Z,92.08
2023-05-02T02:38:38.416Z,90.80
2023-05-02T02:41:11.353Z,90.07
2023-05-02T02:43:41.202Z,89.74
2023-05-02T02:46:14.937Z,88.68
2023-05-02T02:48:48.847Z,87.12
2023-05-02T02:51:22.483Z,85.30
2023-05-02T02:53:56.275Z,84.95
2023-05-02T02:56:27.887Z,85.36
2023-05-02T02:58:57.340Z,86.92
2023-05-02T03:01:25.556Z,87.32
2023-05-02T03:03:53.941Z,87.26
2023-05-02T03:06:20.882Z,88.57
2023-05-02T03:08:47.794Z,92.32
2023-05-02T03:11:20.763Z,93.14
2023-05-02T03:13:47.737Z,93.13
2023-05-02T03:16:36.751Z,93.24
2023-05-02T03:19:06.892Z,92.85
2023-05-02T03:21:33.942Z,92.94
2023-05-02T03:24:06.872Z,91.43
2023-05-02T03:26:35.127Z,91.85
2023-05-02T03:29:02.201Z,91.85
2023-05-02T03:31:34.690Z,90.41
2023-05-02T03:34:01.753Z,89.62
2023-05-02T03:36:28.986Z,92.40
2023-05-02T03:38:56.024Z,93.91
2023-05-02T03:41:24.756Z,92.91
2023-05-02T03:44:00.358Z,90.75
2023-05-02T03:46:28.398Z,90.19
2023-05-02T03:48:57.426Z,89.50
2023-05-02T03:51:24.063Z,88.24
2023-05-02T03:53:54.836Z,90.89
2023-05-02T03:56:21.698Z,92.47
2023-05-02T03:59:00.065Z,92.44
2023-05-02T04:01:27.607Z,91.26
2023-05-02T04:03:56.276Z,89.52
2023-05-02T04:06:25.852Z,88.33
2023-05-02T04:08:59.257Z,89.94
2023-05-02T04:11:30.424Z,88.57
2023-05-02T04:13:57.429Z,87.46
2023-05-02T04:16:25.679Z,87.44
2023-05-02T04:18:52.547Z,87.55
2023-05-02T04:21:19.755Z,87.35
2023-05-02T04:23:47.482Z,87.43
2023-05-02T04:26:14.988Z,87.28
2023-05-02T04:28:53.716Z,87.62
2023-05-02T04:31:20.691Z,89.08
2023-05-02T04:33:49.304Z,89.40
2023-05-02T04:36:19.968Z,87.83
2023-05-02T04:38:47.396Z,88.18
2023-05-02T04:41:16.208Z,89.10
2023-05-02T04:43:48.585Z,90.27
2023-05-02T04:46:16.423Z,91.38
2023-05-02T04:48:43.191Z,89.90
2023-05-02T04:51:11.458Z,88.35
2023-05-02T04:53:38.373Z,85.53
2023-05-02T04:56:05.611Z,84.19
2023-05-02T04:58:35.317Z,86.00
2023-05-02T05:01:05.129Z,83.19
2023-05-02T05:03:33.448Z,76.62
2023-05-02T05:06:00.514Z,78.17
2023-05-02T05:08:29.251Z,75.90
2023-05-02T05:10:57.546Z,70.09
2023-05-02T05:13:25.117Z,70.62
2023-05-02T05:15:52.729Z,67.42
2023-05-02T05:18:22.320Z,66.02
2023-05-02T05:20:49.024Z,64.55
2023-05-02T05:23:16.259Z,66.04
2023-05-02T05:25:45.735Z,66.24
2023-05-02T05:28:14.402Z,64.93
2023-05-02T05:30:41.337Z,59.97
2023-05-02T05:33:11.083Z,58.22
2023-05-02T05:35:38.244Z,56.07
2023-05-02T05:38:05.180Z,55.96
2023-05-02T05:40:34.734Z,54.80
2023-05-02T05:43:02.934Z,51.76
2023-05-02T05:45:33.958Z,51.88
2023-05-02T05:48:00.865Z,51.51
2023-05-02T05:50:31.117Z,51.18
2023-05-02T05:52:58.143Z,51.26
2023-05-02T05:55:24.941Z,50.52
2023-05-02T05:57:51.737Z,49.82
2023-05-02T06:00:20.543Z,48.70
2023-05-02T06:02:51.149Z,48.39
2023-05-02T06:05:26.420Z,47.23
2023-05-02T06:07:53.412Z,49.70
2023-05-02T06:10:20.144Z,49.42
2023-05-02T06:12:49.157Z,48.79
2023-05-02T06:15:18.438Z,45.98
2023-05-02T06:17:46.567Z,47.57
2023-05-02T06:20:16.044Z,46.88
2023-05-02T06:22:43.491Z,46.99
2023-05-02T06:25:10.158Z,47.03
2023-05-02T06:27:36.873Z,46.60
2023-05-02T06:30:04.092Z,45.22
2023-05-02T06:32:31.664Z,46.56
2023-05-02T06:35:00.301Z,46.98
2023-05-02T06:37:26.948Z,46.53
2023-05-02T06:39:53.578Z,46.72
2023-05-02T06:42:20.433Z,45.39
2023-05-02T06:44:47.091Z,47.44
2023-05-02T06:47:13.899Z,47.68
2023-05-02T06:49:40.873Z,47.64
2023-05-02T06:52:08.964Z,46.81
2023-05-02T06:54:35.706Z,46.28
2023-05-02T06:57:02.986Z,47.85
2023-05-02T06:59:29.645Z,45.22
2023-05-02T07:01:56.382Z,43.97
2023-05-02T07:04:23.131Z,45.58
2023-05-02T07:06:50.189Z,44.80
2023-05-02T07:09:18.395Z,47.23
2023-05-02T07:11:45.150Z,44.31
2023-05-02T07:14:11.859Z,43.44
2023-05-02T07:16:38.646Z,44.88
2023-05-02T07:19:06.837Z,43.53
2023-05-02T07:21:33.799Z,44.73
2023-05-02T07:24:01.460Z,45.60
2023-05-02T07:26:29.951Z,47.60
2023-05-02T07:28:56.593Z,45.72
2023-05-02T07:31:23.389Z,44.88
2023-05-02T07:33:50.327Z,45.43
2023-05-02T07:36:18.078Z,47.19
2023-05-02T07:38:44.817Z,46.43
2023-05-02T07:41:13.428Z,47.94
2023-05-02T07:43:41.590Z,47.92
2023-05-02T07:46:08.289Z,48.33
2023-05-02T07:48:35.142Z,48.14
2023-05-02T07:51:08.101Z,48.60
2023-05-02T07:53:34.922Z,47.11
2023-05-02T07:56:03.276Z,47.76
2023-05-02T07:58:30.041Z,46.36
2023-05-02T08:00:58.188Z,46.55
2023-05-02T08:03:24.931Z,47.48
2023-05-02T08:05:51.637Z,48.28
2023-05-02T08:08:18.318Z,47.74
2023-05-02T08:10:45.480Z,48.29
2023-05-02T08:13:12.432Z,49.09
2023-05-02T08:15:39.094Z,50.69
2023-05-02T08:18:07.296Z,52.58
2023-05-02T08:20:34.160Z,50.98
2023-05-02T08:23:01.062Z,48.30
2023-05-02T08:25:27.820Z,48.34
2023-05-02T08:27:54.488Z,49.71
2023-05-02T08:30:21.217Z,52.29
2023-05-02T08:32:48.124Z,53.09
2023-05-02T08:35:16.378Z,55.07
2023-05-02T08:37:43.089Z,54.13
2023-05-02T08:40:11.759Z,53.69
2023-05-02T08:42:41.371Z,53.16
2023-05-02T08:45:17.356Z,54.67
2023-05-02T08:47:44.812Z,54.44
2023-05-02T08:50:11.877Z,55.93
2023-05-02T08:52:40.281Z,54.66
2023-05-02T08:55:07.479Z,53.54
2023-05-02T08:57:34.215Z,53.04
2023-05-02T09:00:01.183Z,54.03
2023-05-02T09:02:40.620Z,54.82
2023-05-02T09:05:07.964Z,54.61
2023-05-02T09:07:44.879Z,54.93
2023-05-02T09:10:11.941Z,53.28
2023-05-02T09:12:38.935Z,54.08
2023-05-02T09:15:12.401Z,53.02
2023-05-02T09:17:40.007Z,53.07
2023-05-02T09:20:07.409Z,53.30
2023-05-02T09:22:34.732Z,53.22
2023-05-02T09:25:02.931Z,52.32
2023-05-02T09:27:29.670Z,53.34
2023-05-02T09:30:18.089Z,52.99
2023-05-02T09:32:44.831Z,52.67
2023-05-02T09:35:11.646Z,51.73
2023-05-02T09:37:38.367Z,51.55
2023-05-02T09:40:07.688Z,51.61
2023-05-02T09:42:34.292Z,52.56
2023-05-02T09:45:01.359Z,53.28
2023-05-02T09:47:28.262Z,52.90
2023-05-02T09:49:54.932Z,52.85
2023-05-02T09:52:24.596Z,53.44
2023-05-02T09:54:52.753Z,53.19
2023-05-02T09:57:20.955Z,53.77
2023-05-02T09:59:54.215Z,54.37
2023-05-02T10:02:21.960Z,54.28
2023-05-02T10:04:50.157Z,54.36
2023-05-02T10:07:17.309Z,56.53
2023-05-02T10:09:47.378Z,55.40
2023-05-02T10:12:15.094Z,55.38
2023-05-02T10:14:46.294Z,55.14
2023-05-02T10:17:14.330Z,54.63
2023-05-02T10:19:44.382Z,54.31
2023-05-02T10:22:12.676Z,54.08
2023-05-02T10:24:40.377Z,53.23
2023-05-02T10:27:07.686Z,55.35
2023-05-02T10:29:35.084Z,53.36
2023-05-02T10:32:04.428Z,54.07
2023-05-02T10:34:32.189Z,52.33
2023-05-02T10:37:02.212Z,52.34
2023-05-02T10:39:29.285Z,52.40
2023-05-02T10:41:57.800Z,50.83
2023-05-02T10:44:32.478Z,50.50
2023-05-02T10:46:59.703Z,51.23
2023-05-02T10:49:29.814Z,50.54
2023-05-02T10:51:56.611Z,49.03
2023-05-02T10:54:24.312Z,49.04
2023-05-02T10:57:05.994Z,47.82
2023-05-02T10:59:34.465Z,48.88
2023-05-02T11:02:01.928Z,47.42
2023-05-02T11:04:43.792Z,48.06
2023-05-02T11:07:18.748Z,49.27
2023-05-02T11:09:45.427Z,49.06
2023-05-02T11:12:32.046Z,46.74
2023-05-02T11:14:59.373Z,47.23
2023-05-02T11:17:26.850Z,48.09
2023-05-02T11:20:23.755Z,49.53
2023-05-02T11:22:52.342Z,49.33
2023-05-02T11:25:32.726Z,50.62
2023-05-02T11:27:59.551Z,48.21
2023-05-02T11:30:39.792Z,47.27
2023-05-02T11:33:16.060Z,48.50
2023-05-02T11:35:47.285Z,45.53
2023-05-02T11:38:16.396Z,45.92
2023-05-02T11:40:50.622Z,44.66
2023-05-02T11:43:18.419Z,45.85
2023-05-02T11:45:45.587Z,44.18
2023-05-02T11:48:13.143Z,45.82
2023-05-02T11:50:48.849Z,46.17
2023-05-02T11:53:18.785Z,46.01
2023-05-02T11:55:46.148Z,46.08
2023-05-02T11:58:13.878Z,47.46
2023-05-02T12:00:40.573Z,46.81
2023-05-02T12:03:07.393Z,47.70
2023-05-02T12:05:34.302Z,46.45
2023-05-02T12:08:02.615Z,45.12
2023-05-02T12:10:37.796Z,44.56
2023-05-02T12:13:04.966Z,44.79
2023-05-02T12:15:31.634Z,45.43
2023-05-02T12:17:58.540Z,41.64
2023-05-02T12:20:25.273Z,43.70
2023-05-02T12:22:51.935Z,45.08
2023-05-02T12:25:18.645Z,44.77
2023-05-02T12:27:59.911Z,43.95
2023-05-02T12:30:26.809Z,43.82
2023-05-02T12:32:56.316Z,43.74
2023-05-02T12:35:23.254Z,46.08
2023-05-02T12:37:50.178Z,42.53
2023-05-02T12:40:19.591Z,41.82
2023-05-02T12:42:58.851Z,43.99
2023-05-02T12:45:29.527Z,42.42
2023-05-02T12:47:58.552Z,41.42
2023-05-02T12:50:35.767Z,41.67
2023-05-02T12:53:03.936Z,42.42
2023-05-02T12:55:32.457Z,42.77
2023-05-02T12:58:02.479Z,45.91
2023-05-02T13:00:31.859Z,41.90
2023-05-02T13:02:58.836Z,42.45
2023-05-02T13:05:26.063Z,43.57
2023-05-02T13:07:52.928Z,41.00
2023-05-02T13:10:19.641Z,41.00
2023-05-02T13:12:47.177Z,40.56
2023-05-02T13:15:14.380Z,41.75
2023-05-02T13:17:42.621Z,40.93
2023-05-02T13:20:09.720Z,41.84
2023-05-02T13:22:39.148Z,43.15
2023-05-02T13:25:06.774Z,43.20
2023-05-02T13:27:34.350Z,42.10
2023-05-02T13:30:07.496Z,40.49
2023-05-02T13:32:35.882Z,39.78
2023-05-02T13:35:04.226Z,40.18
2023-05-02T13:37:31.346Z,40.12
2023-05-02T13:39:58.087Z,39.89
2023-05-02T13:42:24.754Z,41.01
2023-05-02T13:44:51.804Z,39.84
2023-05-02T13:47:18.562Z,40.78
2023-05-02T13:49:45.383Z,40.82
2023-05-02T13:52:13.530Z,40.51
2023-05-02T13:54:42.127Z,41.32
2023-05-02T13:57:08.792Z,40.97
2023-05-02T13:59:35.847Z,37.68
2023-05-02T14:02:02.706Z,42.93
2023-05-02T14:04:29.568Z,37.77
2023-05-02T14:06:56.328Z,37.11
2023-05-02T14:09:24.513Z,37.60
2023-05-02T14:11:51.279Z,36.94
2023-05-02T14:14:18.018Z,38.46
2023-05-02T14:16:44.734Z,37.86
2023-05-02T14:19:11.655Z,38.01
2023-05-02T14:21:38.877Z,38.02
2023-05-02T14:24:06.491Z,38.69
2023-05-02T14:26:34.613Z,38.25
2023-05-02T14:29:01.683Z,38.91
2023-05-02T14:31:28.492Z,36.61
2023-05-02T14:33:55.268Z,36.35
2023-05-02T14:36:21.979Z,36.67
2023-05-02T14:38:48.643Z,37.87
2023-05-02T14:41:15.309Z,37.84
2023-05-02T14:43:43.456Z,36.38
2023-05-02T14:46:10.456Z,36.86
2023-05-02T14:48:37.191Z,37.69
2023-05-02T14:51:06.601Z,37.85
2023-05-02T14:53:34.301Z,38.24
2023-05-02T14:56:01.135Z,37.01
2023-05-02T14:58:28.011Z,36.46
2023-05-02T15:00:56.247Z,35.75
2023-05-02T15:03:23.213Z,36.63
2023-05-02T15:05:49.999Z,37.42
2023-05-02T15:08:16.640Z,36.58
2023-05-02T15:10:43.222Z,35.93
2023-05-02T15:13:09.988Z,35.95
2023-05-02T15:15:37.487Z,37.13
2023-05-02T15:18:06.040Z,37.15
2023-05-02T15:20:32.914Z,37.77
2023-05-02T15:23:03.541Z,37.59
2023-05-02T15:25:31.166Z,36.33
2023-05-02T15:27:57.992Z,37.02
2023-05-02T15:30:25.239Z,38.63
2023-05-02T15:32:52.133Z,36.45
2023-05-02T15:35:20.679Z,37.18
2023-05-02T15:37:47.384Z,36.68
2023-05-02T15:40:14.537Z,37.10
2023-05-02T15:42:41.837Z,38.01
2023-05-02T15:45:11.306Z,37.59
2023-05-02T15:47:37.975Z,36.99
2023-05-02T15:50:05.426Z,37.85
2023-05-02T15:52:33.855Z,37.68
2023-05-02T15:55:01.676Z,38.42
2023-05-02T15:57:28.377Z,37.99
2023-05-02T15:59:55.168Z,38.19
2023-05-02T16:02:21.977Z,36.66
2023-05-02T16:04:48.969Z,37.27
2023-05-02T16:07:15.846Z,38.08
2023-05-02T16:09:43.902Z,38.35
2023-05-02T16:12:11.158Z,38.65
2023-05-02T16:14:37.900Z,38.55
2023-05-02T16:17:04.594Z,38.92
2023-05-02T16:19:31.580Z,38.06
2023-05-02T16:21:58.218Z,36.23
2023-05-02T16:24:25.084Z,36.25
2023-05-02T16:26:53.144Z,37.06
2023-05-02T16:29:19.788Z,36.31
2023-05-02T16:31:46.502Z,37.40
2023-05-02T16:34:13.208Z,38.62
2023-05-02T16:36:39.964Z,38.84
2023-05-02T16:39:06.758Z,39.64
2023-05-02T16:41:34.510Z,39.54
2023-05-02T16:44:02.654Z,38.97
2023-05-02T16:46:29.382Z,39.01
2023-05-02T16:48:56.170Z,38.53
2023-05-02T16:51:22.977Z,39.48
2023-05-02T16:53:49.791Z,40.10
2023-05-02T16:56:16.420Z,40.54
2023-05-02T16:58:43.134Z,41.71
2023-05-02T17:01:11.431Z,41.95
2023-05-02T17:03:39.506Z,41.98
2023-05-02T17:06:06.332Z,42.35
2023-05-02T17:08:33.150Z,42.33
2023-05-02T17:10:59.823Z,42.43
2023-05-02T17:13:26.638Z,42.97
2023-05-02T17:15:53.755Z,43.41
2023-05-02T17:18:22.181Z,42.69
2023-05-02T17:20:48.975Z,42.55
2023-05-02T17:23:16.185Z,42.45
2023-05-02T17:25:42.962Z,42.17
2023-05-02T17:28:09.962Z,42.09
2023-05-02T17:30:36.954Z,42.13
2023-05-02T17:33:03.973Z,42.44
2023-05-02T17:35:32.078Z,42.74
2023-05-02T17:37:58.785Z,42.68
2023-05-02T17:40:25.526Z,43.33
2023-05-02T17:42:52.236Z,43.12
2023-05-02T17:45:18.868Z,43.57
2023-05-02T17:47:45.884Z,44.13
2023-05-02T17:50:14.230Z,44.49
2023-05-02T17:52:42.320Z,45.46
2023-05-02T17:55:09.311Z,45.97
2023-05-02T17:57:36.417Z,46.34
2023-05-02T18:00:04.942Z,46.36
2023-05-02T18:02:33.530Z,46.57
2023-05-02T18:05:02.952Z,46.98
2023-05-02T18:07:30.145Z,46.66
2023-05-02T18:09:59.302Z,46.74
2023-05-02T18:12:26.007Z,46.68
2023-05-02T18:14:52.814Z,46.82
2023-05-02T18:17:20.883Z,46.95
2023-05-02T18:19:50.573Z,47.54
2023-05-02T18:22:19.640Z,47.20
2023-05-02T18:24:47.085Z,47.41
2023-05-02T18:27:15.345Z,47.56
2023-05-02T18:29:41.998Z,47.69
2023-05-02T18:32:08.816Z,47.62
2023-05-02T18:34:38.345Z,47.83
2023-05-02T18:37:05.858Z,48.24
2023-05-02T18:39:33.074Z,48.46
2023-05-02T18:42:01.434Z,48.78
2023-05-02T18:44:29.664Z,49.24
2023-05-02T18:46:59.174Z,49.53
2023-05-02T18:49:26.309Z,49.79
2023-05-02T18:51:53.043Z,49.97
2023-05-02T18:54:19.900Z,50.02
2023-05-02T18:56:46.917Z,50.39
2023-05-02T18:59:13.555Z,50.77
2023-05-02T19:01:41.790Z,50.96
2023-05-02T19:04:08.430Z,51.21
2023-05-02T19:06:35.172Z,51.76
2023-05-02T19:09:01.894Z,52.01
2023-05-02T19:11:28.681Z,52.34
2023-05-02T19:13:58.786Z,52.87
2023-05-02T19:16:27.144Z,52.89
2023-05-02T19:18:57.057Z,53.43
2023-05-02T19:21:23.940Z,54.02
2023-05-02T19:23:50.679Z,54.41
2023-05-02T19:26:17.596Z,54.28
2023-05-02T19:28:44.771Z,54.54
2023-05-02T19:31:11.951Z,54.88
2023-05-02T19:33:38.904Z,55.66
2023-05-02T19:36:07.311Z,56.35
2023-05-02T19:38:33.965Z,56.94
2023-05-02T19:41:00.999Z,58.23
2023-05-02T19:43:27.962Z,58.53
2023-05-02T19:45:56.828Z,59.30
2023-05-02T19:48:23.718Z,60.13
2023-05-02T19:50:50.386Z,60.86
2023-05-02T19:53:18.447Z,61.33
2023-05-02T19:55:45.101Z,61.57
2023-05-02T19:58:11.786Z,62.46
2023-05-02T20:00:38.445Z,62.82
2023-05-02T20:03:05.702Z,63.08
2023-05-02T20:05:32.494Z,62.89
2023-05-02T20:07:59.656Z,64.20
2023-05-02T20:10:27.685Z,64.14
2023-05-02T20:12:54.322Z,63.81
2023-05-02T20:15:21.866Z,64.83
2023-05-02T20:17:48.720Z,65.60
2023-05-02T20:20:15.642Z,65.59
2023-05-02T20:22:42.407Z,65.02
2023-05-02T20:25:11.450Z,64.52
2023-05-02T20:27:39.585Z,63.19
2023-05-02T20:30:08.222Z,62.50
2023-05-02T20:32:34.973Z,61.69
2023-05-02T20:35:01.724Z,61.34
2023-05-02T20:37:29.376Z,61.56
2023-05-02T20:39:56.570Z,63.69
2023-05-02T20:42:24.355Z,63.77
2023-05-02T20:44:56.867Z,63.24
2023-05-02T20:47:23.739Z,62.77
2023-05-02T20:49:50.498Z,62.44
2023-05-02T20:52:17.457Z,61.69
2023-05-02T20:54:44.400Z,63.78
2023-05-02T20:57:11.290Z,63.13
2023-05-02T20:59:38.091Z,62.70
2023-05-02T21:02:06.483Z,61.80
2023-05-02T21:04:33.461Z,61.78
2023-05-02T21:07:00.250Z,61.24
2023-05-02T21:09:27.095Z,60.56
2023-05-02T21:11:53.853Z,60.70
2023-05-02T21:14:24.245Z,60.89
2023-05-02T21:16:50.950Z,61.49
2023-05-02T21:19:19.860Z,61.22
2023-05-02T21:21:46.785Z,63.28
2023-05-02T21:24:13.417Z,63.38
2023-05-02T21:26:40.934Z,65.06
2023-05-02T21:29:08.152Z,64.84
2023-05-02T21:31:34.876Z,64.87
2023-05-02T21:34:01.525Z,64.25
2023-05-02T21:36:29.569Z,64.21
2023-05-02T21:38:56.303Z,63.70
2023-05-02T21:41:22.999Z,63.81
2023-05-02T21:43:49.692Z,64.84
2023-05-02T21:46:16.377Z,65.56
2023-05-02T21:48:42.996Z,67.17
2023-05-02T21:51:10.435Z,66.58
2023-05-02T21:53:38.417Z,68.53
2023-05-02T21:56:05.840Z,68.58
2023-05-02T21:58:32.626Z,70.43
2023-05-02T22:00:59.495Z,72.34
2023-05-02T22:03:27.531Z,71.66
2023-05-02T22:05:57.700Z,71.53
2023-05-02T22:08:24.832Z,71.17
2023-05-02T22:10:52.986Z,70.67
2023-05-02T22:13:19.644Z,70.06
2023-05-02T22:15:46.839Z,69.53
2023-05-02T22:18:14.190Z,68.58
2023-05-02T22:20:40.940Z,68.13
2023-05-02T22:23:07.975Z,68.16
2023-05-02T22:25:35.984Z,67.92
2023-05-02T22:28:06.893Z,67.64
2023-05-02T22:30:34.055Z,68.40
2023-05-02T22:33:02.395Z,68.17
2023-05-02T22:35:29.477Z,68.17
2023-05-02T22:37:58.958Z,67.79
2023-05-02T22:40:25.685Z,68.48
2023-05-02T22:42:52.481Z,68.63
2023-05-02T22:45:20.718Z,68.37
2023-05-02T22:47:47.400Z,68.47
2023-05-02T22:50:14.393Z,69.06
2023-05-02T22:52:41.038Z,69.75
2023-05-02T22:55:09.352Z,69.22
2023-05-02T22:57:36.289Z,68.30
2023-05-02T23:00:03.587Z,68.23
2023-05-02T23:02:32.047Z,68.16
2023-05-02T23:04:58.719Z,67.72
2023-05-02T23:07:25.693Z,67.08
2023-05-02T23:09:52.604Z,66.69
2023-05-02T23:12:19.275Z,66.77
2023-05-02T23:14:46.266Z,66.60
2023-05-02T23:17:13.149Z,66.48
2023-05-02T23:19:41.226Z,66.75
2023-05-02T23:22:07.845Z,66.28
2023-05-02T23:24:34.470Z,66.77
2023-05-02T23:27:01.321Z,66.18
2023-05-02T23:29:28.610Z,67.20
2023-05-02T23:31:55.615Z,67.73
2023-05-02T23:34:22.330Z,68.03
2023-05-02T23:36:51.490Z,68.05
2023-05-02T23:39:18.451Z,68.59
2023-05-02T23:41:45.165Z,68.56
2023-05-02T23:44:11.858Z,69.38
2023-05-02T23:46:38.533Z,69.93
2023-05-02T23:49:05.241Z,71.89
2023-05-02T23:51:32.242Z,70.84
2023-05-02T23:54:00.415Z,71.52
2023-05-02T23:56:27.581Z,72.62
2023-05-02T23:58:54.264Z,70.89
